sensor_id;sensor_type;location;lat;lon;timestamp;pressure;altitude;pressure_sealevel;temperature;humidity
18323;BME280;9287;49.456;11.064;2023-08-20T00:00:22;98437.38;;;24.68;100.00
18323;BME280;9287;49.456;11.064;2023-08-20T00:02:58;98434.50;;;24.71;100.00
18323;BME280;9287;49.456;11.064;2023-08-20T00:05:28;98435.09;;;24.79;100.00
18323;BME280;9287;49.456;11.064;2023-08-20T00:07:56;98431.38;;;24.69;100.00
18323;BME280;9287;49.456;11.064;2023-08-20T00:10:24;98439.91;;;24.78;100.00
18323;BME280;9287;49.456;11.064;2023-08-20T00:12:52;98435.72;;;24.70;100.00
18323;BME280;9287;49.456;11.064;2023-08-20T00:15:20;98432.66;;;24.48;100.00
18323;BME280;9287;49.456;11.064;2023-08-20T00:17:56;98429.44;;;24.66;100.00
18323;BME280;9287;49.456;11.064;2023-08-20T00:20:24;98426.13;;;24.55;100.00
18323;BME280;9287;49.456;11.064;2023-08-20T00:22:54;98427.84;;;24.49;100.00
18323;BME280;9287;49.456;11.064;2023-08-20T00:25:22;98431.50;;;24.46;100.00
18323;BME280;9287;49.456;11.064;2023-08-20T00:27:50;98428.56;;;24.53;100.00
18323;BME280;9287;49.456;11.064;2023-08-20T00:30:18;98424.19;;;24.36;100.00
18323;BME280;9287;49.456;11.064;2023-08-20T00:32:51;98431.41;;;24.33;100.00
18323;BME280;9287;49.456;11.064;2023-08-20T00:35:19;98426.97;;;24.36;100.00
18323;BME280;9287;49.456;11.064;2023-08-20T00:37:47;98424.91;;;24.40;100.00
18323;BME280;9287;49.456;11.064;2023-08-20T00:40:17;98421.03;;;24.34;100.00
18323;BME280;9287;49.456;11.064;2023-08-20T00:42:45;98421.91;;;24.31;100.00
18323;BME280;9287;49.456;11.064;2023-08-20T00:45:12;98426.25;;;24.32;100.00
18323;BME280;9287;49.456;11.064;2023-08-20T00:47:40;98427.34;;;24.38;100.00
18323;BME280;9287;49.456;11.064;2023-08-20T00:50:09;98429.06;;;24.32;100.00
18323;BME280;9287;49.456;11.064;2023-08-20T00:52:37;98428.19;;;24.35;100.00
18323;BME280;9287;49.456;11.064;2023-08-20T00:55:08;98433.94;;;24.27;100.00
18323;BME280;9287;49.456;11.064;2023-08-20T00:57:37;98428.50;;;24.20;100.00
18323;BME280;9287;49.456;11.064;2023-08-20T01:00:07;98432.06;;;24.21;100.00
18323;BME280;9287;49.456;11.064;2023-08-20T01:02:38;98430.78;;;24.25;100.00
18323;BME280;9287;49.456;11.064;2023-08-20T01:05:08;98434.78;;;24.24;100.00
18323;BME280;9287;49.456;11.064;2023-08-20T01:07:44;98430.00;;;24.25;100.00
18323;BME280;9287;49.456;11.064;2023-08-20T01:10:18;98433.25;;;24.23;100.00
18323;BME280;9287;49.456;11.064;2023-08-20T01:12:48;98425.69;;;24.20;100.00
18323;BME280;9287;49.456;11.064;2023-08-20T01:15:17;98431.06;;;24.11;100.00
18323;BME280;9287;49.456;11.064;2023-08-20T01:17:45;98424.78;;;24.07;100.00
18323;BME280;9287;49.456;11.064;2023-08-20T01:20:14;98435.47;;;23.92;100.00
18323;BME280;9287;49.456;11.064;2023-08-20T01:23:13;98436.34;;;23.89;100.00
18323;BME280;9287;49.456;11.064;2023-08-20T01:26:03;98442.84;;;23.83;100.00
18323;BME280;9287;49.456;11.064;2023-08-20T01:28:34;98445.41;;;23.74;100.00
18323;BME280;9287;49.456;11.064;2023-08-20T01:31:03;98442.97;;;23.76;100.00
18323;BME280;9287;49.456;11.064;2023-08-20T01:33:31;98451.06;;;23.70;100.00
18323;BME280;9287;49.456;11.064;2023-08-20T01:35:59;98445.91;;;23.69;100.00
18323;BME280;9287;49.456;11.064;2023-08-20T01:38:28;98451.50;;;23.69;100.00
18323;BME280;9287;49.456;11.064;2023-08-20T01:40:56;98456.00;;;23.63;100.00
18323;BME280;9287;49.456;11.064;2023-08-20T01:43:25;98464.00;;;23.60;100.00
18323;BME280;9287;49.456;11.064;2023-08-20T01:45:54;98456.66;;;23.47;100.00
18323;BME280;9287;49.456;11.064;2023-08-20T01:48:22;98461.03;;;23.48;100.00
18323;BME280;9287;49.456;11.064;2023-08-20T01:50:51;98465.03;;;23.47;100.00
18323;BME280;9287;49.456;11.064;2023-08-20T01:53:21;98471.75;;;23.49;100.00
18323;BME280;9287;49.456;11.064;2023-08-20T01:55:49;98457.56;;;23.40;100.00
18323;BME280;9287;49.456;11.064;2023-08-20T01:58:17;98465.34;;;23.29;100.00
18323;BME280;9287;49.456;11.064;2023-08-20T02:00:45;98459.78;;;23.29;100.00
18323;BME280;9287;49.456;11.064;2023-08-20T02:03:17;98470.56;;;23.27;100.00
18323;BME280;9287;49.456;11.064;2023-08-20T02:05:52;98465.47;;;23.22;100.00
18323;BME280;9287;49.456;11.064;2023-08-20T02:08:20;98461.88;;;23.21;100.00
18323;BME280;9287;49.456;11.064;2023-08-20T02:10:49;98464.75;;;23.18;100.00
18323;BME280;9287;49.456;11.064;2023-08-20T02:13:16;98457.00;;;23.29;100.00
18323;BME280;9287;49.456;11.064;2023-08-20T02:15:57;98464.69;;;23.21;100.00
18323;BME280;9287;49.456;11.064;2023-08-20T02:18:29;98461.63;;;23.16;100.00
18323;BME280;9287;49.456;11.064;2023-08-20T02:20:57;98456.53;;;23.11;100.00
18323;BME280;9287;49.456;11.064;2023-08-20T02:23:28;98460.16;;;23.08;100.00
18323;BME280;9287;49.456;11.064;2023-08-20T02:25:56;98459.41;;;23.04;100.00
18323;BME280;9287;49.456;11.064;2023-08-20T02:28:24;98474.81;;;23.12;100.00
18323;BME280;9287;49.456;11.064;2023-08-20T02:30:53;98474.38;;;23.13;100.00
18323;BME280;9287;49.456;11.064;2023-08-20T02:33:25;98483.47;;;23.17;100.00
18323;BME280;9287;49.456;11.064;2023-08-20T02:35:57;98475.19;;;23.14;100.00
18323;BME280;9287;49.456;11.064;2023-08-20T02:38:31;98476.00;;;23.11;100.00
18323;BME280;9287;49.456;11.064;2023-08-20T02:41:00;98473.72;;;23.06;100.00
18323;BME280;9287;49.456;11.064;2023-08-20T02:43:29;98480.25;;;22.96;100.00
18323;BME280;9287;49.456;11.064;2023-08-20T02:46:00;98478.63;;;22.98;100.00
18323;BME280;9287;49.456;11.064;2023-08-20T02:48:28;98477.09;;;22.94;100.00
18323;BME280;9287;49.456;11.064;2023-08-20T02:50:58;98475.53;;;22.92;100.00
18323;BME280;9287;49.456;11.064;2023-08-20T02:53:29;98476.88;;;22.84;100.00
18323;BME280;9287;49.456;11.064;2023-08-20T02:56:02;98463.84;;;22.74;100.00
18323;BME280;9287;49.456;11.064;2023-08-20T02:58:31;98466.88;;;22.60;100.00
18323;BME280;9287;49.456;11.064;2023-08-20T03:01:00;98469.56;;;22.67;100.00
18323;BME280;9287;49.456;11.064;2023-08-20T03:03:29;98472.69;;;22.69;100.00
18323;BME280;9287;49.456;11.064;2023-08-20T03:05:59;98475.03;;;22.71;100.00
18323;BME280;9287;49.456;11.064;2023-08-20T03:08:27;98471.13;;;22.68;100.00
18323;BME280;9287;49.456;11.064;2023-08-20T03:10:55;98472.69;;;22.69;100.00
18323;BME280;9287;49.456;11.064;2023-08-20T03:13:23;98469.56;;;22.67;100.00
18323;BME280;9287;49.456;11.064;2023-08-20T03:15:50;98464.91;;;22.57;100.00
18323;BME280;9287;49.456;11.064;2023-08-20T03:18:19;98466.41;;;22.65;100.00
18323;BME280;9287;49.456;11.064;2023-08-20T03:20:47;98476.06;;;22.57;100.00
18323;BME280;9287;49.456;11.064;2023-08-20T03:23:16;98468.06;;;22.59;100.00
18323;BME280;9287;49.456;11.064;2023-08-20T03:25:44;98467.09;;;22.46;100.00
18323;BME280;9287;49.456;11.064;2023-08-20T03:28:13;98472.19;;;22.51;100.00
18323;BME280;9287;49.456;11.064;2023-08-20T03:30:41;98472.19;;;22.51;100.00
18323;BME280;9287;49.456;11.064;2023-08-20T03:33:09;98480.25;;;22.42;100.00
18323;BME280;9287;49.456;11.064;2023-08-20T03:35:38;98483.63;;;22.30;100.00
18323;BME280;9287;49.456;11.064;2023-08-20T03:38:06;98480.41;;;22.31;100.00
18323;BME280;9287;49.456;11.064;2023-08-20T03:40:35;98481.56;;;22.34;100.00
18323;BME280;9287;49.456;11.064;2023-08-20T03:43:03;98474.78;;;22.35;100.00
18323;BME280;9287;49.456;11.064;2023-08-20T03:45:31;98478.00;;;22.33;100.00
18323;BME280;9287;49.456;11.064;2023-08-20T03:47:59;98482.78;;;22.33;100.00
18323;BME280;9287;49.456;11.064;2023-08-20T03:50:27;98483.75;;;22.19;100.00
18323;BME280;9287;49.456;11.064;2023-08-20T03:52:54;98483.44;;;22.13;100.00
18323;BME280;9287;49.456;11.064;2023-08-20T03:55:24;98484.16;;;22.17;100.00
18323;BME280;9287;49.456;11.064;2023-08-20T03:57:53;98487.38;;;22.16;100.00
18323;BME280;9287;49.456;11.064;2023-08-20T04:00:21;98484.44;;;22.27;100.00
18323;BME280;9287;49.456;11.064;2023-08-20T04:02:48;98483.25;;;22.28;100.00
18323;BME280;9287;49.456;11.064;2023-08-20T04:05:16;98489.94;;;22.34;100.00
18323;BME280;9287;49.456;11.064;2023-08-20T04:07:44;98491.84;;;22.37;100.00
18323;BME280;9287;49.456;11.064;2023-08-20T04:10:12;98488.50;;;22.18;100.00
18323;BME280;9287;49.456;11.064;2023-08-20T04:12:40;98493.44;;;22.07;100.00
18323;BME280;9287;49.456;11.064;2023-08-20T04:15:09;98490.19;;;22.12;100.00
18323;BME280;9287;49.456;11.064;2023-08-20T04:17:37;98489.44;;;22.08;100.00
18323;BME280;9287;49.456;11.064;2023-08-20T04:20:06;98495.63;;;22.23;100.00
18323;BME280;9287;49.456;11.064;2023-08-20T04:22:36;98496.56;;;22.13;100.00
18323;BME280;9287;49.456;11.064;2023-08-20T04:25:05;98500.50;;;22.15;100.00
18323;BME280;9287;49.456;11.064;2023-08-20T04:27:33;98495.66;;;22.19;100.00
18323;BME280;9287;49.456;11.064;2023-08-20T04:30:02;98500.75;;;22.25;100.00
18323;BME280;9287;49.456;11.064;2023-08-20T04:32:31;98497.94;;;22.28;100.00
18323;BME280;9287;49.456;11.064;2023-08-20T04:35:01;98501.13;;;22.27;100.00
18323;BME280;9287;49.456;11.064;2023-08-20T04:37:28;98505.50;;;22.28;100.00
18323;BME280;9287;49.456;11.064;2023-08-20T04:39:56;98503.53;;;22.25;100.00
18323;BME280;9287;49.456;11.064;2023-08-20T04:42:24;98501.97;;;22.23;100.00
18323;BME280;9287;49.456;11.064;2023-08-20T04:44:52;98505.94;;;22.22;100.00
18323;BME280;9287;49.456;11.064;2023-08-20T04:47:19;98507.06;;;22.29;100.00
18323;BME280;9287;49.456;11.064;2023-08-20T04:49:49;98503.53;;;22.25;100.00
18323;BME280;9287;49.456;11.064;2023-08-20T04:52:17;98510.69;;;22.26;100.00
18323;BME280;9287;49.456;11.064;2023-08-20T04:54:45;98513.44;;;22.29;100.00
18323;BME280;9287;49.456;11.064;2023-08-20T04:57:13;98506.63;;;22.34;100.00
18323;BME280;9287;49.456;11.064;2023-08-20T04:59:42;98512.63;;;22.29;100.00
18323;BME280;9287;49.456;11.064;2023-08-20T05:02:12;98510.50;;;22.40;100.00
18323;BME280;9287;49.456;11.064;2023-08-20T05:04:40;98513.22;;;22.43;100.00
18323;BME280;9287;49.456;11.064;2023-08-20T05:07:09;98514.03;;;22.44;100.00
18323;BME280;9287;49.456;11.064;2023-08-20T05:09:37;98515.97;;;22.47;100.00
18323;BME280;9287;49.456;11.064;2023-08-20T05:12:06;98515.13;;;22.50;100.00
18323;BME280;9287;49.456;11.064;2023-08-20T05:14:34;98523.13;;;22.48;100.00
18323;BME280;9287;49.456;11.064;2023-08-20T05:17:02;98525.47;;;22.49;100.00
18323;BME280;9287;49.456;11.064;2023-08-20T05:19:30;98527.88;;;22.47;100.00
18323;BME280;9287;49.456;11.064;2023-08-20T05:21:58;98526.59;;;22.52;100.00
18323;BME280;9287;49.456;11.064;2023-08-20T05:24:27;98526.94;;;22.57;100.00
18323;BME280;9287;49.456;11.064;2023-08-20T05:27:06;98533.03;;;22.79;100.00
18323;BME280;9287;49.456;11.064;2023-08-20T05:29:35;98546.25;;;22.99;100.00
18323;BME280;9287;49.456;11.064;2023-08-20T05:32:03;98536.50;;;23.10;100.00
18323;BME280;9287;49.456;11.064;2023-08-20T05:34:31;98534.16;;;23.09;100.00
18323;BME280;9287;49.456;11.064;2023-08-20T05:36:59;98537.06;;;23.25;100.00
18323;BME280;9287;49.456;11.064;2023-08-20T05:39:29;98541.69;;;23.35;100.00
18323;BME280;9287;49.456;11.064;2023-08-20T05:41:58;98537.44;;;23.27;100.00
18323;BME280;9287;49.456;11.064;2023-08-20T05:44:26;98536.22;;;23.28;100.00
18323;BME280;9287;49.456;11.064;2023-08-20T05:46:53;98540.06;;;23.38;100.00
18323;BME280;9287;49.456;11.064;2023-08-20T05:49:21;98540.09;;;23.34;100.00
18323;BME280;9287;49.456;11.064;2023-08-20T05:51:49;98542.06;;;23.37;100.00
18323;BME280;9287;49.456;11.064;2023-08-20T05:54:17;98543.97;;;23.40;100.00
18323;BME280;9287;49.456;11.064;2023-08-20T05:56:46;98541.31;;;23.56;100.00
18323;BME280;9287;49.456;11.064;2023-08-20T05:59:14;98545.25;;;23.59;100.00
18323;BME280;9287;49.456;11.064;2023-08-20T06:01:42;98540.34;;;23.67;100.00
18323;BME280;9287;49.456;11.064;2023-08-20T06:04:10;98535.03;;;23.52;100.00
18323;BME280;9287;49.456;11.064;2023-08-20T06:06:38;98538.94;;;23.32;100.00
18323;BME280;9287;49.456;11.064;2023-08-20T06:09:07;98537.31;;;23.57;100.00
18323;BME280;9287;49.456;11.064;2023-08-20T06:11:36;98540.97;;;23.54;100.00
18323;BME280;9287;49.456;11.064;2023-08-20T06:14:05;98531.50;;;23.72;100.00
18323;BME280;9287;49.456;11.064;2023-08-20T06:16:33;98525.03;;;23.75;100.00
18323;BME280;9287;49.456;11.064;2023-08-20T06:19:00;98542.75;;;23.88;100.00
18323;BME280;9287;49.456;11.064;2023-08-20T06:21:30;98526.56;;;23.99;100.00
18323;BME280;9287;49.456;11.064;2023-08-20T06:23:58;98523.66;;;24.06;100.00
18323;BME280;9287;49.456;11.064;2023-08-20T06:26:26;98522.38;;;24.31;100.00
18323;BME280;9287;49.456;11.064;2023-08-20T06:28:54;98519.94;;;24.33;100.00
18323;BME280;9287;49.456;11.064;2023-08-20T06:31:24;98525.53;;;24.69;100.00
18323;BME280;9287;49.456;11.064;2023-08-20T06:33:51;98524.28;;;24.70;100.00
18323;BME280;9287;49.456;11.064;2023-08-20T06:36:19;98524.78;;;25.01;100.00
18323;BME280;9287;49.456;11.064;2023-08-20T06:38:47;98526.38;;;25.18;100.00
18323;BME280;9287;49.456;11.064;2023-08-20T06:41:15;98526.69;;;25.52;100.00
18323;BME280;9287;49.456;11.064;2023-08-20T06:43:43;98531.75;;;25.57;100.00
18323;BME280;9287;49.456;11.064;2023-08-20T06:46:11;98535.72;;;25.89;100.00
18323;BME280;9287;49.456;11.064;2023-08-20T06:48:40;98539.97;;;26.22;100.00
18323;BME280;9287;49.456;11.064;2023-08-20T06:51:10;98530.66;;;26.67;100.00
18323;BME280;9287;49.456;11.064;2023-08-20T06:53:39;98542.72;;;27.65;100.00
18323;BME280;9287;49.456;11.064;2023-08-20T06:56:08;98543.91;;;29.44;100.00
18323;BME280;9287;49.456;11.064;2023-08-20T06:58:38;98546.50;;;31.51;98.77
18323;BME280;9287;49.456;11.064;2023-08-20T07:01:08;98537.69;;;33.29;76.40
18323;BME280;9287;49.456;11.064;2023-08-20T07:03:40;98550.53;;;33.65;67.14
18323;BME280;9287;49.456;11.064;2023-08-20T07:06:09;98543.66;;;34.90;60.38
18323;BME280;9287;49.456;11.064;2023-08-20T07:08:37;98554.66;;;35.14;57.21
18323;BME280;9287;49.456;11.064;2023-08-20T07:11:06;98554.53;;;36.92;48.44
18323;BME280;9287;49.456;11.064;2023-08-20T07:13:34;98562.81;;;37.01;46.56
18323;BME280;9287;49.456;11.064;2023-08-20T07:16:03;98564.66;;;36.87;47.35
18323;BME280;9287;49.456;11.064;2023-08-20T07:18:31;98546.41;;;38.62;42.79
18323;BME280;9287;49.456;11.064;2023-08-20T07:21:00;98553.84;;;38.35;41.63
18323;BME280;9287;49.456;11.064;2023-08-20T07:23:28;98553.78;;;38.82;40.94
18323;BME280;9287;49.456;11.064;2023-08-20T07:26:04;98554.38;;;38.75;39.76
18323;BME280;9287;49.456;11.064;2023-08-20T07:28:32;98561.03;;;39.91;37.68
18323;BME280;9287;49.456;11.064;2023-08-20T07:31:14;98566.47;;;38.04;40.75
18323;BME280;9287;49.456;11.064;2023-08-20T07:33:45;98560.53;;;39.87;37.60
18323;BME280;9287;49.456;11.064;2023-08-20T07:36:16;98569.00;;;39.25;38.07
18323;BME280;9287;49.456;11.064;2023-08-20T07:38:44;98569.41;;;41.10;35.15
18323;BME280;9287;49.456;11.064;2023-08-20T07:41:12;98572.34;;;41.76;32.72
18323;BME280;9287;49.456;11.064;2023-08-20T07:43:40;98570.25;;;41.89;33.01
18323;BME280;9287;49.456;11.064;2023-08-20T07:46:09;98570.34;;;40.35;34.83
18323;BME280;9287;49.456;11.064;2023-08-20T07:48:37;98569.97;;;40.76;33.98
18323;BME280;9287;49.456;11.064;2023-08-20T07:51:05;98564.25;;;39.82;35.21
18323;BME280;9287;49.456;11.064;2023-08-20T07:53:35;98561.78;;;40.67;34.92
18323;BME280;9287;49.456;11.064;2023-08-20T07:56:03;98563.31;;;40.87;33.99
18323;BME280;9287;49.456;11.064;2023-08-20T07:58:31;98559.38;;;38.63;37.49
18323;BME280;9287;49.456;11.064;2023-08-20T08:01:00;98564.97;;;40.26;34.96
18323;BME280;9287;49.456;11.064;2023-08-20T08:03:28;98563.94;;;40.05;34.54
18323;BME280;9287;49.456;11.064;2023-08-20T08:05:56;98562.53;;;41.58;32.75
18323;BME280;9287;49.456;11.064;2023-08-20T08:08:24;98564.22;;;42.27;31.48
18323;BME280;9287;49.456;11.064;2023-08-20T08:10:53;98569.31;;;40.51;34.17
18323;BME280;9287;49.456;11.064;2023-08-20T08:13:22;98564.44;;;41.10;33.22
18323;BME280;9287;49.456;11.064;2023-08-20T08:15:51;98563.44;;;42.73;31.26
18323;BME280;9287;49.456;11.064;2023-08-20T08:18:19;98572.47;;;40.29;33.72
18323;BME280;9287;49.456;11.064;2023-08-20T08:20:47;98562.66;;;40.94;32.61
18323;BME280;9287;49.456;11.064;2023-08-20T08:23:15;98562.66;;;40.43;33.97
18323;BME280;9287;49.456;11.064;2023-08-20T08:25:43;98568.28;;;41.84;31.86
18323;BME280;9287;49.456;11.064;2023-08-20T08:28:12;98567.25;;;41.16;31.78
18323;BME280;9287;49.456;11.064;2023-08-20T08:30:40;98573.09;;;40.41;33.42
18323;BME280;9287;49.456;11.064;2023-08-20T08:33:08;98572.72;;;40.31;33.58
18323;BME280;9287;49.456;11.064;2023-08-20T08:35:36;98576.41;;;40.26;33.00
18323;BME280;9287;49.456;11.064;2023-08-20T08:38:04;98578.72;;;42.21;31.62
18323;BME280;9287;49.456;11.064;2023-08-20T08:40:33;98567.31;;;42.29;29.73
18323;BME280;9287;49.456;11.064;2023-08-20T08:43:01;98576.41;;;39.64;33.70
18323;BME280;9287;49.456;11.064;2023-08-20T08:45:32;98579.34;;;38.98;34.67
18323;BME280;9287;49.456;11.064;2023-08-20T08:48:02;98581.72;;;40.73;33.79
18323;BME280;9287;49.456;11.064;2023-08-20T08:50:32;98581.19;;;42.04;32.48
18323;BME280;9287;49.456;11.064;2023-08-20T08:53:02;98578.53;;;42.53;30.74
18323;BME280;9287;49.456;11.064;2023-08-20T08:55:30;98579.16;;;42.93;30.26
18323;BME280;9287;49.456;11.064;2023-08-20T08:57:58;98576.56;;;42.35;30.19
18323;BME280;9287;49.456;11.064;2023-08-20T09:00:26;98579.50;;;42.22;31.11
18323;BME280;9287;49.456;11.064;2023-08-20T09:02:58;98572.06;;;42.40;30.15
18323;BME280;9287;49.456;11.064;2023-08-20T09:05:26;98571.47;;;39.83;32.81
18323;BME280;9287;49.456;11.064;2023-08-20T09:07:55;98570.53;;;39.99;32.95
18323;BME280;9287;49.456;11.064;2023-08-20T09:10:25;98571.69;;;40.10;33.35
18323;BME280;9287;49.456;11.064;2023-08-20T09:12:54;98582.28;;;42.01;30.97
18323;BME280;9287;49.456;11.064;2023-08-20T09:15:31;98569.47;;;39.78;32.30
18323;BME280;9287;49.456;11.064;2023-08-20T09:18:03;98573.88;;;39.30;32.90
18323;BME280;9287;49.456;11.064;2023-08-20T09:20:35;98573.31;;;41.91;30.63
18323;BME280;9287;49.456;11.064;2023-08-20T09:23:03;98577.97;;;41.94;30.87
18323;BME280;9287;49.456;11.064;2023-08-20T09:25:34;98573.13;;;42.02;29.50
18323;BME280;9287;49.456;11.064;2023-08-20T09:28:02;98569.56;;;42.91;28.01
18323;BME280;9287;49.456;11.064;2023-08-20T09:30:30;98573.31;;;42.86;28.77
18323;BME280;9287;49.456;11.064;2023-08-20T09:33:04;98570.56;;;42.12;28.45
18323;BME280;9287;49.456;11.064;2023-08-20T09:35:32;98570.78;;;43.03;27.62
18323;BME280;9287;49.456;11.064;2023-08-20T09:38:00;98564.63;;;42.99;27.09
18323;BME280;9287;49.456;11.064;2023-08-20T09:40:30;98568.13;;;43.05;27.55
18323;BME280;9287;49.456;11.064;2023-08-20T09:42:59;98568.91;;;40.60;29.57
18323;BME280;9287;49.456;11.064;2023-08-20T09:45:30;98566.56;;;38.75;32.72
18323;BME280;9287;49.456;11.064;2023-08-20T09:47:59;98573.34;;;41.39;30.11
18323;BME280;9287;49.456;11.064;2023-08-20T09:50:31;98571.13;;;41.97;29.64
18323;BME280;9287;49.456;11.064;2023-08-20T09:53:06;98567.94;;;41.88;29.69
18323;BME280;9287;49.456;11.064;2023-08-20T09:55:39;98576.66;;;41.82;29.19
18323;BME280;9287;49.456;11.064;2023-08-20T09:58:09;98564.00;;;43.99;26.92
18323;BME280;9287;49.456;11.064;2023-08-20T10:00:38;98568.69;;;43.24;26.83
18323;BME280;9287;49.456;11.064;2023-08-20T10:03:06;98569.72;;;39.56;30.93
18323;BME280;9287;49.456;11.064;2023-08-20T10:05:35;98569.34;;;40.64;30.41
18323;BME280;9287;49.456;11.064;2023-08-20T10:08:04;98571.34;;;41.33;29.29
18323;BME280;9287;49.456;11.064;2023-08-20T10:10:33;98562.53;;;41.58;29.95
18323;BME280;9287;49.456;11.064;2023-08-20T10:13:04;98556.00;;;42.23;29.56
18323;BME280;9287;49.456;11.064;2023-08-20T10:15:32;98562.63;;;42.52;26.82
18323;BME280;9287;49.456;11.064;2023-08-20T10:18:07;98564.72;;;40.24;29.13
18323;BME280;9287;49.456;11.064;2023-08-20T10:20:38;98560.00;;;39.46;31.19
18323;BME280;9287;49.456;11.064;2023-08-20T10:23:06;98562.91;;;38.39;31.86
18323;BME280;9287;49.456;11.064;2023-08-20T10:25:40;98562.81;;;36.79;35.15
18323;BME280;9287;49.456;11.064;2023-08-20T10:28:13;98562.03;;;37.06;35.00
18323;BME280;9287;49.456;11.064;2023-08-20T10:31:04;98560.75;;;36.74;36.06
18323;BME280;9287;49.456;11.064;2023-08-20T10:33:34;98565.53;;;35.58;37.12
18323;BME280;9287;49.456;11.064;2023-08-20T10:36:12;98555.06;;;37.18;35.27
18323;BME280;9287;49.456;11.064;2023-08-20T10:38:40;98569.00;;;36.60;36.30
18323;BME280;9287;49.456;11.064;2023-08-20T10:41:09;98562.00;;;36.56;36.41
18323;BME280;9287;49.456;11.064;2023-08-20T10:43:38;98558.72;;;35.87;37.69
18323;BME280;9287;49.456;11.064;2023-08-20T10:46:07;98556.75;;;35.56;38.76
18323;BME280;9287;49.456;11.064;2023-08-20T10:48:38;98559.66;;;35.73;38.39
18323;BME280;9287;49.456;11.064;2023-08-20T10:51:12;98555.97;;;36.15;38.53
18323;BME280;9287;49.456;11.064;2023-08-20T10:53:41;98557.19;;;35.91;38.44
18323;BME280;9287;49.456;11.064;2023-08-20T10:56:14;98561.09;;;36.00;38.71
18323;BME280;9287;49.456;11.064;2023-08-20T10:58:45;98558.66;;;35.76;39.99
18323;BME280;9287;49.456;11.064;2023-08-20T11:01:23;98550.69;;;35.85;39.80
18323;BME280;9287;49.456;11.064;2023-08-20T11:03:51;98551.72;;;35.34;41.89
18323;BME280;9287;49.456;11.064;2023-08-20T11:06:20;98551.78;;;36.05;39.26
18323;BME280;9287;49.456;11.064;2023-08-20T11:08:48;98544.44;;;37.24;37.55
18323;BME280;9287;49.456;11.064;2023-08-20T11:11:17;98538.41;;;37.56;35.46
18323;BME280;9287;49.456;11.064;2023-08-20T11:13:48;98544.16;;;37.34;36.43
18323;BME280;9287;49.456;11.064;2023-08-20T11:16:16;98543.13;;;37.14;36.11
18323;BME280;9287;49.456;11.064;2023-08-20T11:18:46;98546.25;;;36.60;36.31
18323;BME280;9287;49.456;11.064;2023-08-20T11:21:14;98546.72;;;36.31;37.44
18323;BME280;9287;49.456;11.064;2023-08-20T11:23:43;98544.19;;;36.89;36.57
18323;BME280;9287;49.456;11.064;2023-08-20T11:26:17;98538.50;;;36.78;35.96
18323;BME280;9287;49.456;11.064;2023-08-20T11:28:46;98532.25;;;37.07;37.37
18323;BME280;9287;49.456;11.064;2023-08-20T11:31:14;98529.66;;;37.32;36.67
18323;BME280;9287;49.456;11.064;2023-08-20T11:33:42;98532.22;;;37.41;36.07
18323;BME280;9287;49.456;11.064;2023-08-20T11:36:10;98525.16;;;37.75;35.93
18323;BME280;9287;49.456;11.064;2023-08-20T11:38:38;98529.88;;;37.45;35.06
18323;BME280;9287;49.456;11.064;2023-08-20T11:41:08;98524.94;;;37.51;35.31
18323;BME280;9287;49.456;11.064;2023-08-20T11:43:36;98521.88;;;37.38;35.87
18323;BME280;9287;49.456;11.064;2023-08-20T11:46:03;98534.34;;;37.12;35.93
18323;BME280;9287;49.456;11.064;2023-08-20T11:48:32;98527.59;;;37.26;35.07
18323;BME280;9287;49.456;11.064;2023-08-20T11:51:04;98525.94;;;37.59;35.29
18323;BME280;9287;49.456;11.064;2023-08-20T11:53:32;98522.75;;;37.90;35.92
18323;BME280;9287;49.456;11.064;2023-08-20T11:56:01;98522.16;;;37.28;35.58
18323;BME280;9287;49.456;11.064;2023-08-20T11:58:31;98520.81;;;37.41;34.17
18323;BME280;9287;49.456;11.064;2023-08-20T12:00:59;98522.72;;;37.05;34.90
18323;BME280;9287;49.456;11.064;2023-08-20T12:03:29;98523.22;;;37.14;34.18
18323;BME280;9287;49.456;11.064;2023-08-20T12:05:58;98515.91;;;37.47;33.73
18323;BME280;9287;49.456;11.064;2023-08-20T12:08:26;98517.19;;;37.51;35.41
18323;BME280;9287;49.456;11.064;2023-08-20T12:10:57;98524.28;;;36.72;34.89
18323;BME280;9287;49.456;11.064;2023-08-20T12:13:27;98518.34;;;36.87;34.82
18323;BME280;9287;49.456;11.064;2023-08-20T12:15:57;98510.28;;;37.02;35.14
18323;BME280;9287;49.456;11.064;2023-08-20T12:18:25;98510.44;;;37.49;34.70
18323;BME280;9287;49.456;11.064;2023-08-20T12:20:52;98502.78;;;36.99;35.26
18323;BME280;9287;49.456;11.064;2023-08-20T12:23:21;98506.06;;;38.06;34.32
18323;BME280;9287;49.456;11.064;2023-08-20T12:25:50;98505.78;;;38.09;33.97
18323;BME280;9287;49.456;11.064;2023-08-20T12:28:18;98499.44;;;36.56;35.79
18323;BME280;9287;49.456;11.064;2023-08-20T12:30:46;98491.94;;;36.81;36.06
18323;BME280;9287;49.456;11.064;2023-08-20T12:33:15;98491.69;;;36.45;36.03
18323;BME280;9287;49.456;11.064;2023-08-20T12:35:43;98496.34;;;35.61;37.56
18323;BME280;9287;49.456;11.064;2023-08-20T12:38:11;98493.69;;;35.41;37.87
18323;BME280;9287;49.456;11.064;2023-08-20T12:40:39;98495.84;;;35.68;38.61
18323;BME280;9287;49.456;11.064;2023-08-20T12:43:07;98484.06;;;35.86;38.05
18323;BME280;9287;49.456;11.064;2023-08-20T12:45:35;98490.88;;;36.39;37.23
18323;BME280;9287;49.456;11.064;2023-08-20T12:48:04;98485.13;;;36.06;37.59
18323;BME280;9287;49.456;11.064;2023-08-20T12:50:35;98481.53;;;36.22;38.14
18323;BME280;9287;49.456;11.064;2023-08-20T12:53:03;98491.13;;;36.19;37.29
18323;BME280;9287;49.456;11.064;2023-08-20T12:55:32;98484.69;;;36.35;37.23
18323;BME280;9287;49.456;11.064;2023-08-20T12:58:00;98484.59;;;35.96;37.03
18323;BME280;9287;49.456;11.064;2023-08-20T13:00:28;98488.53;;;36.15;37.07
18323;BME280;9287;49.456;11.064;2023-08-20T13:02:57;98476.69;;;35.52;38.21
18323;BME280;9287;49.456;11.064;2023-08-20T13:05:26;98481.09;;;35.10;38.93